sensor_id;sensor_type;location;lat;lon;timestamp;P1;durP1;ratioP1;P2;durP2;ratioP2
63801;SDS011;49949;43.060;25.624;2022-12-08T00:00:52;88.10;;;21.08;;
63801;SDS011;49949;43.060;25.624;2022-12-08T00:03:18;75.90;;;20.17;;
63801;SDS011;49949;43.060;25.624;2022-12-08T00:05:44;78.32;;;20.30;;
63801;SDS011;49949;43.060;25.624;2022-12-08T00:08:29;61.17;;;21.20;;
63801;SDS011;49949;43.060;25.624;2022-12-08T00:11:13;64.88;;;21.00;;
63801;SDS011;49949;43.060;25.624;2022-12-08T00:13:39;59.60;;;23.45;;
63801;SDS011;49949;43.060;25.624;2022-12-08T00:16:05;47.72;;;19.65;;
63801;SDS011;49949;43.060;25.624;2022-12-08T00:18:31;47.60;;;19.00;;
63801;SDS011;49949;43.060;25.624;2022-12-08T00:20:57;50.70;;;19.38;;
63801;SDS011;49949;43.060;25.624;2022-12-08T00:23:23;46.92;;;17.77;;
63801;SDS011;49949;43.060;25.624;2022-12-08T00:25:49;44.58;;;17.70;;
63801;SDS011;49949;43.060;25.624;2022-12-08T00:28:15;46.15;;;17.85;;
63801;SDS011;49949;43.060;25.624;2022-12-08T00:30:41;44.75;;;18.40;;
63801;SDS011;49949;43.060;25.624;2022-12-08T00:33:07;48.25;;;18.52;;
63801;SDS011;49949;43.060;25.624;2022-12-08T00:35:33;46.80;;;17.83;;
63801;SDS011;49949;43.060;25.624;2022-12-08T00:37:59;43.33;;;18.60;;
63801;SDS011;49949;43.060;25.624;2022-12-08T00:40:25;43.28;;;17.58;;
63801;SDS011;49949;43.060;25.624;2022-12-08T00:42:50;41.42;;;17.17;;
63801;SDS011;49949;43.060;25.624;2022-12-08T00:45:16;41.53;;;16.63;;
63801;SDS011;49949;43.060;25.624;2022-12-08T00:47:42;35.28;;;16.25;;
63801;SDS011;49949;43.060;25.624;2022-12-08T00:50:08;40.45;;;16.25;;
63801;SDS011;49949;43.060;25.624;2022-12-08T00:52:34;40.08;;;16.33;;
63801;SDS011;49949;43.060;25.624;2022-12-08T00:55:00;38.28;;;15.55;;
63801;SDS011;49949;43.060;25.624;2022-12-08T00:57:25;39.70;;;15.88;;
63801;SDS011;49949;43.060;25.624;2022-12-08T00:59:51;33.38;;;15.70;;
63801;SDS011;49949;43.060;25.624;2022-12-08T01:02:16;36.40;;;15.30;;
63801;SDS011;49949;43.060;25.624;2022-12-08T01:04:42;37.53;;;14.43;;
63801;SDS011;49949;43.060;25.624;2022-12-08T01:07:08;35.83;;;15.85;;
63801;SDS011;49949;43.060;25.624;2022-12-08T01:09:34;36.42;;;14.40;;
63801;SDS011;49949;43.060;25.624;2022-12-08T01:11:59;37.75;;;14.13;;
63801;SDS011;49949;43.060;25.624;2022-12-08T01:14:25;37.40;;;14.77;;
63801;SDS011;49949;43.060;25.624;2022-12-08T01:16:51;44.63;;;15.73;;
63801;SDS011;49949;43.060;25.624;2022-12-08T01:19:17;38.42;;;15.35;;
63801;SDS011;49949;43.060;25.624;2022-12-08T01:21:43;36.33;;;15.40;;
63801;SDS011;49949;43.060;25.624;2022-12-08T01:24:10;39.92;;;15.68;;
63801;SDS011;49949;43.060;25.624;2022-12-08T01:26:44;38.60;;;14.15;;
63801;SDS011;49949;43.060;25.624;2022-12-08T01:29:10;36.42;;;15.55;;
63801;SDS011;49949;43.060;25.624;2022-12-08T01:31:37;34.58;;;15.60;;
63801;SDS011;49949;43.060;25.624;2022-12-08T01:34:03;38.00;;;15.05;;
63801;SDS011;49949;43.060;25.624;2022-12-08T01:36:30;38.50;;;15.80;;
63801;SDS011;49949;43.060;25.624;2022-12-08T01:38:58;36.90;;;16.20;;
63801;SDS011;49949;43.060;25.624;2022-12-08T01:41:26;42.35;;;15.88;;
63801;SDS011;49949;43.060;25.624;2022-12-08T01:43:58;36.90;;;15.00;;
63801;SDS011;49949;43.060;25.624;2022-12-08T01:46:33;38.53;;;15.50;;
63801;SDS011;49949;43.060;25.624;2022-12-08T01:49:11;40.00;;;15.20;;
63801;SDS011;49949;43.060;25.624;2022-12-08T01:51:57;39.72;;;16.08;;
63801;SDS011;49949;43.060;25.624;2022-12-08T01:54:24;37.70;;;15.80;;
63801;SDS011;49949;43.060;25.624;2022-12-08T01:57:05;38.80;;;14.80;;
63801;SDS011;49949;43.060;25.624;2022-12-08T01:59:40;34.22;;;14.55;;
63801;SDS011;49949;43.060;25.624;2022-12-08T02:02:09;37.13;;;14.38;;
63801;SDS011;49949;43.060;25.624;2022-12-08T02:04:36;40.33;;;16.65;;
63801;SDS011;49949;43.060;25.624;2022-12-08T02:07:02;35.50;;;14.68;;
63801;SDS011;49949;43.060;25.624;2022-12-08T02:09:29;43.00;;;16.17;;
63801;SDS011;49949;43.060;25.624;2022-12-08T02:11:55;41.22;;;14.85;;
63801;SDS011;49949;43.060;25.624;2022-12-08T02:14:22;35.15;;;13.82;;
63801;SDS011;49949;43.060;25.624;2022-12-08T02:25:14;32.03;;;14.32;;
63801;SDS011;49949;43.060;25.624;2022-12-08T02:34:11;35.45;;;14.32;;
63801;SDS011;49949;43.060;25.624;2022-12-08T02:39:28;37.65;;;14.57;;
63801;SDS011;49949;43.060;25.624;2022-12-08T02:42:39;30.00;;;12.18;;
63801;SDS011;49949;43.060;25.624;2022-12-08T02:45:38;29.27;;;11.82;;
63801;SDS011;49949;43.060;25.624;2022-12-08T02:48:09;32.17;;;13.60;;
63801;SDS011;49949;43.060;25.624;2022-12-08T02:50:35;36.25;;;15.00;;
63801;SDS011;49949;43.060;25.624;2022-12-08T02:53:00;28.52;;;13.82;;
63801;SDS011;49949;43.060;25.624;2022-12-08T02:55:35;29.00;;;13.13;;
63801;SDS011;49949;43.060;25.624;2022-12-08T03:06:44;42.28;;;15.68;;
63801;SDS011;49949;43.060;25.624;2022-12-08T03:12:30;27.15;;;11.50;;
63801;SDS011;49949;43.060;25.624;2022-12-08T03:15:09;33.10;;;12.45;;
63801;SDS011;49949;43.060;25.624;2022-12-08T03:17:40;27.75;;;12.05;;
63801;SDS011;49949;43.060;25.624;2022-12-08T03:20:11;29.23;;;11.85;;
63801;SDS011;49949;43.060;25.624;2022-12-08T03:22:40;31.38;;;13.25;;
63801;SDS011;49949;43.060;25.624;2022-12-08T03:25:09;28.95;;;13.23;;
63801;SDS011;49949;43.060;25.624;2022-12-08T03:27:38;31.02;;;13.13;;
63801;SDS011;49949;43.060;25.624;2022-12-08T03:30:04;31.33;;;12.65;;
63801;SDS011;49949;43.060;25.624;2022-12-08T03:32:36;32.05;;;12.95;;
63801;SDS011;49949;43.060;25.624;2022-12-08T03:35:12;32.03;;;12.52;;
63801;SDS011;49949;43.060;25.624;2022-12-08T03:37:41;27.83;;;12.02;;
63801;SDS011;49949;43.060;25.624;2022-12-08T03:40:09;27.27;;;11.48;;
63801;SDS011;49949;43.060;25.624;2022-12-08T03:42:36;28.15;;;12.40;;
63801;SDS011;49949;43.060;25.624;2022-12-08T03:45:03;27.48;;;11.10;;
63801;SDS011;49949;43.060;25.624;2022-12-08T03:47:29;34.03;;;13.23;;
63801;SDS011;49949;43.060;25.624;2022-12-08T03:49:55;30.75;;;12.48;;
63801;SDS011;49949;43.060;25.624;2022-12-08T03:52:20;26.25;;;10.88;;
63801;SDS011;49949;43.060;25.624;2022-12-08T03:54:46;27.63;;;12.43;;
63801;SDS011;49949;43.060;25.624;2022-12-08T03:57:12;26.05;;;11.93;;
63801;SDS011;49949;43.060;25.624;2022-12-08T03:59:38;28.70;;;13.30;;
63801;SDS011;49949;43.060;25.624;2022-12-08T04:02:03;30.30;;;13.68;;
63801;SDS011;49949;43.060;25.624;2022-12-08T04:04:29;27.08;;;11.73;;
63801;SDS011;49949;43.060;25.624;2022-12-08T04:06:55;31.23;;;12.30;;
63801;SDS011;49949;43.060;25.624;2022-12-08T04:09:21;29.83;;;12.45;;
63801;SDS011;49949;43.060;25.624;2022-12-08T04:11:47;32.35;;;12.52;;
63801;SDS011;49949;43.060;25.624;2022-12-08T04:14:12;33.28;;;13.25;;
63801;SDS011;49949;43.060;25.624;2022-12-08T04:16:38;32.00;;;13.43;;
63801;SDS011;49949;43.060;25.624;2022-12-08T04:19:04;28.80;;;12.40;;
63801;SDS011;49949;43.060;25.624;2022-12-08T04:21:29;32.17;;;12.45;;
63801;SDS011;49949;43.060;25.624;2022-12-08T04:23:55;41.10;;;13.60;;
63801;SDS011;49949;43.060;25.624;2022-12-08T04:26:21;84.95;;;37.00;;
63801;SDS011;49949;43.060;25.624;2022-12-08T04:28:47;26.42;;;11.43;;
63801;SDS011;49949;43.060;25.624;2022-12-08T04:31:12;32.05;;;13.18;;
63801;SDS011;49949;43.060;25.624;2022-12-08T04:33:38;33.97;;;14.38;;
63801;SDS011;49949;43.060;25.624;2022-12-08T04:36:04;35.92;;;14.70;;
63801;SDS011;49949;43.060;25.624;2022-12-08T04:38:30;32.33;;;13.57;;
63801;SDS011;49949;43.060;25.624;2022-12-08T04:40:57;40.08;;;13.75;;
63801;SDS011;49949;43.060;25.624;2022-12-08T04:43:22;36.08;;;14.43;;
63801;SDS011;49949;43.060;25.624;2022-12-08T04:45:48;40.53;;;14.65;;
63801;SDS011;49949;43.060;25.624;2022-12-08T04:48:14;65.65;;;17.65;;
63801;SDS011;49949;43.060;25.624;2022-12-08T04:50:40;33.92;;;15.43;;
63801;SDS011;49949;43.060;25.624;2022-12-08T04:53:08;36.67;;;13.93;;
63801;SDS011;49949;43.060;25.624;2022-12-08T04:55:37;38.03;;;13.50;;
63801;SDS011;49949;43.060;25.624;2022-12-08T04:58:04;32.97;;;12.77;;
63801;SDS011;49949;43.060;25.624;2022-12-08T05:00:30;30.17;;;12.20;;
63801;SDS011;49949;43.060;25.624;2022-12-08T05:02:55;30.55;;;12.00;;
63801;SDS011;49949;43.060;25.624;2022-12-08T05:05:21;27.50;;;11.30;;
63801;SDS011;49949;43.060;25.624;2022-12-08T05:07:47;28.42;;;10.75;;
63801;SDS011;49949;43.060;25.624;2022-12-08T05:10:12;25.15;;;11.18;;
63801;SDS011;49949;43.060;25.624;2022-12-08T05:12:38;26.38;;;11.00;;
63801;SDS011;49949;43.060;25.624;2022-12-08T05:15:04;26.25;;;10.65;;
63801;SDS011;49949;43.060;25.624;2022-12-08T05:17:30;23.98;;;10.55;;
63801;SDS011;49949;43.060;25.624;2022-12-08T05:19:55;21.95;;;10.30;;
63801;SDS011;49949;43.060;25.624;2022-12-08T05:22:21;22.42;;;8.98;;
63801;SDS011;49949;43.060;25.624;2022-12-08T05:24:47;20.05;;;9.32;;
63801;SDS011;49949;43.060;25.624;2022-12-08T05:27:12;25.50;;;9.52;;
63801;SDS011;49949;43.060;25.624;2022-12-08T05:29:38;20.92;;;9.00;;
63801;SDS011;49949;43.060;25.624;2022-12-08T05:32:04;23.50;;;9.00;;
63801;SDS011;49949;43.060;25.624;2022-12-08T05:34:30;20.95;;;8.95;;
63801;SDS011;49949;43.060;25.624;2022-12-08T05:36:56;21.13;;;9.25;;
63801;SDS011;49949;43.060;25.624;2022-12-08T05:39:21;36.45;;;11.60;;
63801;SDS011;49949;43.060;25.624;2022-12-08T05:41:47;38.58;;;15.40;;
63801;SDS011;49949;43.060;25.624;2022-12-08T05:44:12;49.25;;;19.65;;
63801;SDS011;49949;43.060;25.624;2022-12-08T05:46:38;56.53;;;19.08;;
63801;SDS011;49949;43.060;25.624;2022-12-08T05:49:05;42.10;;;16.08;;
63801;SDS011;49949;43.060;25.624;2022-12-08T05:51:31;39.22;;;14.45;;
63801;SDS011;49949;43.060;25.624;2022-12-08T05:53:56;33.85;;;12.35;;
63801;SDS011;49949;43.060;25.624;2022-12-08T05:56:22;25.33;;;11.35;;
63801;SDS011;49949;43.060;25.624;2022-12-08T05:58:48;23.92;;;10.98;;
63801;SDS011;49949;43.060;25.624;2022-12-08T06:01:21;30.40;;;11.82;;
63801;SDS011;49949;43.060;25.624;2022-12-08T06:03:52;26.55;;;10.50;;
63801;SDS011;49949;43.060;25.624;2022-12-08T06:06:19;23.52;;;11.52;;
63801;SDS011;49949;43.060;25.624;2022-12-08T06:08:45;28.38;;;11.80;;
63801;SDS011;49949;43.060;25.624;2022-12-08T06:11:21;29.63;;;12.82;;
63801;SDS011;49949;43.060;25.624;2022-12-08T06:13:49;31.92;;;12.15;;
63801;SDS011;49949;43.060;25.624;2022-12-08T06:16:15;31.83;;;12.57;;
63801;SDS011;49949;43.060;25.624;2022-12-08T06:18:42;33.80;;;12.70;;
63801;SDS011;49949;43.060;25.624;2022-12-08T06:21:08;38.22;;;13.13;;
63801;SDS011;49949;43.060;25.624;2022-12-08T06:23:35;36.85;;;13.77;;
63801;SDS011;49949;43.060;25.624;2022-12-08T06:26:06;34.25;;;13.07;;
63801;SDS011;49949;43.060;25.624;2022-12-08T06:28:36;34.35;;;12.82;;
63801;SDS011;49949;43.060;25.624;2022-12-08T06:31:07;33.58;;;12.18;;
63801;SDS011;49949;43.060;25.624;2022-12-08T06:33:35;30.58;;;11.25;;
63801;SDS011;49949;43.060;25.624;2022-12-08T06:36:02;34.10;;;12.40;;
63801;SDS011;49949;43.060;25.624;2022-12-08T06:38:28;27.50;;;10.63;;
63801;SDS011;49949;43.060;25.624;2022-12-08T06:40:54;33.28;;;12.38;;
63801;SDS011;49949;43.060;25.624;2022-12-08T06:43:22;36.55;;;12.00;;
63801;SDS011;49949;43.060;25.624;2022-12-08T06:45:48;28.13;;;11.25;;
63801;SDS011;49949;43.060;25.624;2022-12-08T06:48:14;25.55;;;11.07;;
63801;SDS011;49949;43.060;25.624;2022-12-08T06:50:40;28.65;;;11.13;;
63801;SDS011;49949;43.060;25.624;2022-12-08T06:53:06;24.85;;;10.02;;
63801;SDS011;49949;43.060;25.624;2022-12-08T06:55:32;28.25;;;10.07;;
63801;SDS011;49949;43.060;25.624;2022-12-08T06:57:58;29.58;;;10.43;;
63801;SDS011;49949;43.060;25.624;2022-12-08T07:00:24;32.80;;;12.50;;
63801;SDS011;49949;43.060;25.624;2022-12-08T07:02:49;63.35;;;26.45;;
63801;SDS011;49949;43.060;25.624;2022-12-08T07:05:15;33.45;;;13.70;;
63801;SDS011;49949;43.060;25.624;2022-12-08T07:07:41;33.08;;;11.77;;
63801;SDS011;49949;43.060;25.624;2022-12-08T07:10:07;26.15;;;11.65;;
63801;SDS011;49949;43.060;25.624;2022-12-08T07:12:32;29.17;;;10.90;;
63801;SDS011;49949;43.060;25.624;2022-12-08T07:14:58;29.25;;;11.20;;
63801;SDS011;49949;43.060;25.624;2022-12-08T07:17:24;29.73;;;11.75;;
63801;SDS011;49949;43.060;25.624;2022-12-08T07:19:50;29.75;;;10.95;;
63801;SDS011;49949;43.060;25.624;2022-12-08T07:22:15;23.42;;;10.52;;
63801;SDS011;49949;43.060;25.624;2022-12-08T07:24:41;27.50;;;10.75;;
63801;SDS011;49949;43.060;25.624;2022-12-08T07:27:07;32.05;;;11.63;;
63801;SDS011;49949;43.060;25.624;2022-12-08T07:29:32;33.47;;;12.75;;
63801;SDS011;49949;43.060;25.624;2022-12-08T07:31:58;26.17;;;10.75;;
63801;SDS011;49949;43.060;25.624;2022-12-08T07:34:24;21.58;;;9.60;;
63801;SDS011;49949;43.060;25.624;2022-12-08T07:36:49;23.83;;;11.32;;
63801;SDS011;49949;43.060;25.624;2022-12-08T07:39:15;21.23;;;10.27;;
63801;SDS011;49949;43.060;25.624;2022-12-08T07:41:41;38.38;;;14.02;;
63801;SDS011;49949;43.060;25.624;2022-12-08T07:44:07;35.40;;;15.05;;
63801;SDS011;49949;43.060;25.624;2022-12-08T07:46:33;36.25;;;14.93;;
63801;SDS011;49949;43.060;25.624;2022-12-08T07:48:59;34.28;;;13.60;;
63801;SDS011;49949;43.060;25.624;2022-12-08T07:51:24;36.30;;;15.30;;
63801;SDS011;49949;43.060;25.624;2022-12-08T07:53:50;30.45;;;13.50;;
63801;SDS011;49949;43.060;25.624;2022-12-08T07:56:16;24.92;;;12.00;;
63801;SDS011;49949;43.060;25.624;2022-12-08T07:58:42;27.83;;;12.27;;
63801;SDS011;49949;43.060;25.624;2022-12-08T08:01:17;31.85;;;12.55;;
63801;SDS011;49949;43.060;25.624;2022-12-08T08:03:43;24.90;;;11.25;;
63801;SDS011;49949;43.060;25.624;2022-12-08T08:06:09;25.30;;;10.30;;
63801;SDS011;49949;43.060;25.624;2022-12-08T08:08:34;26.75;;;11.15;;
63801;SDS011;49949;43.060;25.624;2022-12-08T08:11:00;25.60;;;11.43;;
63801;SDS011;49949;43.060;25.624;2022-12-08T08:13:29;34.15;;;15.05;;
63801;SDS011;49949;43.060;25.624;2022-12-08T08:16:01;25.27;;;11.15;;
63801;SDS011;49949;43.060;25.624;2022-12-08T08:18:30;20.30;;;9.13;;
63801;SDS011;49949;43.060;25.624;2022-12-08T08:20:57;21.40;;;8.40;;
63801;SDS011;49949;43.060;25.624;2022-12-08T08:23:22;15.98;;;7.38;;
63801;SDS011;49949;43.060;25.624;2022-12-08T08:25:48;19.13;;;8.32;;
63801;SDS011;49949;43.060;25.624;2022-12-08T08:28:14;16.90;;;8.02;;
63801;SDS011;49949;43.060;25.624;2022-12-08T08:30:40;19.48;;;8.27;;
63801;SDS011;49949;43.060;25.624;2022-12-08T08:33:06;18.25;;;8.30;;
63801;SDS011;49949;43.060;25.624;2022-12-08T08:35:32;14.88;;;8.10;;
63801;SDS011;49949;43.060;25.624;2022-12-08T08:37:58;13.10;;;6.47;;
63801;SDS011;49949;43.060;25.624;2022-12-08T08:40:24;11.38;;;5.82;;
63801;SDS011;49949;43.060;25.624;2022-12-08T08:42:50;13.88;;;6.82;;
63801;SDS011;49949;43.060;25.624;2022-12-08T08:45:16;12.82;;;6.97;;
63801;SDS011;49949;43.060;25.624;2022-12-08T08:47:41;12.63;;;6.38;;
63801;SDS011;49949;43.060;25.624;2022-12-08T08:50:07;9.52;;;6.05;;
63801;SDS011;49949;43.060;25.624;2022-12-08T08:52:33;11.55;;;6.40;;
63801;SDS011;49949;43.060;25.624;2022-12-08T08:54:59;9.43;;;5.95;;
63801;SDS011;49949;43.060;25.624;2022-12-08T08:57:24;11.65;;;5.15;;
63801;SDS011;49949;43.060;25.624;2022-12-08T08:59:50;13.40;;;6.78;;
63801;SDS011;49949;43.060;25.624;2022-12-08T09:02:16;16.88;;;7.13;;
63801;SDS011;49949;43.060;25.624;2022-12-08T09:04:43;14.02;;;6.97;;
63801;SDS011;49949;43.060;25.624;2022-12-08T09:07:09;13.55;;;6.40;;
63801;SDS011;49949;43.060;25.624;2022-12-08T09:09:36;12.25;;;6.78;;
63801;SDS011;49949;43.060;25.624;2022-12-08T09:12:01;10.50;;;5.55;;
63801;SDS011;49949;43.060;25.624;2022-12-08T09:14:27;12.45;;;7.20;;
63801;SDS011;49949;43.060;25.624;2022-12-08T09:16:53;13.95;;;7.60;;
63801;SDS011;49949;43.060;25.624;2022-12-08T09:19:19;14.45;;;7.57;;
63801;SDS011;49949;43.060;25.624;2022-12-08T09:21:44;12.35;;;6.55;;
63801;SDS011;49949;43.060;25.624;2022-12-08T09:24:10;18.67;;;7.65;;
63801;SDS011;49949;43.060;25.624;2022-12-08T09:26:39;9.00;;;5.30;;
63801;SDS011;49949;43.060;25.624;2022-12-08T09:29:06;10.52;;;5.70;;
63801;SDS011;49949;43.060;25.624;2022-12-08T09:31:32;13.23;;;7.00;;
63801;SDS011;49949;43.060;25.624;2022-12-08T09:33:57;15.30;;;7.57;;
63801;SDS011;49949;43.060;25.624;2022-12-08T09:36:23;15.77;;;6.82;;
63801;SDS011;49949;43.060;25.624;2022-12-08T09:38:49;12.43;;;6.65;;
63801;SDS011;49949;43.060;25.624;2022-12-08T09:46:42;12.13;;;6.65;;
63801;SDS011;49949;43.060;25.624;2022-12-08T09:49:11;12.23;;;6.47;;
63801;SDS011;49949;43.060;25.624;2022-12-08T09:51:43;13.48;;;6.93;;
63801;SDS011;49949;43.060;25.624;2022-12-08T09:54:17;19.17;;;7.75;;
63801;SDS011;49949;43.060;25.624;2022-12-08T09:56:59;18.88;;;7.78;;
63801;SDS011;49949;43.060;25.624;2022-12-08T10:01:58;19.88;;;7.50;;
63801;SDS011;49949;43.060;25.624;2022-12-08T10:09:38;14.23;;;7.63;;
63801;SDS011;49949;43.060;25.624;2022-12-08T10:12:25;15.32;;;7.45;;
63801;SDS011;49949;43.060;25.624;2022-12-08T10:17:36;18.65;;;8.52;;
63801;SDS011;49949;43.060;25.624;2022-12-08T10:20:18;16.45;;;8.02;;
63801;SDS011;49949;43.060;25.624;2022-12-08T10:22:49;14.07;;;8.73;;
63801;SDS011;49949;43.060;25.624;2022-12-08T10:25:20;16.00;;;8.73;;
63801;SDS011;49949;43.060;25.624;2022-12-08T10:28:08;17.75;;;8.95;;
63801;SDS011;49949;43.060;25.624;2022-12-08T10:30:34;18.40;;;8.32;;
63801;SDS011;49949;43.060;25.624;2022-12-08T10:33:00;15.10;;;8.23;;
63801;SDS011;49949;43.060;25.624;2022-12-08T10:35:40;17.40;;;8.85;;
63801;SDS011;49949;43.060;25.624;2022-12-08T10:38:43;18.30;;;9.23;;
63801;SDS011;49949;43.060;25.624;2022-12-08T10:41:10;34.95;;;9.55;;
63801;SDS011;49949;43.060;25.624;2022-12-08T10:43:42;17.80;;;8.43;;
63801;SDS011;49949;43.060;25.624;2022-12-08T10:46:17;15.00;;;8.55;;
63801;SDS011;49949;43.060;25.624;2022-12-08T10:51:35;14.80;;;7.80;;
63801;SDS011;49949;43.060;25.624;2022-12-08T10:56:30;18.10;;;9.02;;
63801;SDS011;49949;43.060;25.624;2022-12-08T10:59:04;20.77;;;9.57;;
63801;SDS011;49949;43.060;25.624;2022-12-08T11:01:38;18.30;;;9.45;;
63801;SDS011;49949;43.060;25.624;2022-12-08T11:04:12;20.00;;;8.98;;
63801;SDS011;49949;43.060;25.624;2022-12-08T11:06:58;20.02;;;9.85;;
63801;SDS011;49949;43.060;25.624;2022-12-08T11:09:43;18.63;;;9.18;;
63801;SDS011;49949;43.060;25.624;2022-12-08T11:12:19;16.58;;;8.93;;
63801;SDS011;49949;43.060;25.624;2022-12-08T11:14:49;15.02;;;8.77;;
63801;SDS011;49949;43.060;25.624;2022-12-08T11:17:27;26.77;;;13.55;;
63801;SDS011;49949;43.060;25.624;2022-12-08T11:22:38;19.15;;;9.95;;
63801;SDS011;49949;43.060;25.624;2022-12-08T11:25:16;16.38;;;8.63;;
63801;SDS011;49949;43.060;25.624;2022-12-08T11:27:52;20.92;;;10.13;;
63801;SDS011;49949;43.060;25.624;2022-12-08T11:30:22;18.35;;;9.90;;
63801;SDS011;49949;43.060;25.624;2022-12-08T11:35:50;26.95;;;11.35;;
63801;SDS011;49949;43.060;25.624;2022-12-08T11:38:26;20.05;;;10.25;;
63801;SDS011;49949;43.060;25.624;2022-12-08T11:45:59;21.17;;;10.45;;
63801;SDS011;49949;43.060;25.624;2022-12-08T11:48:30;18.98;;;10.73;;
63801;SDS011;49949;43.060;25.624;2022-12-08T11:54:21;21.95;;;11.55;;
63801;SDS011;49949;43.060;25.624;2022-12-08T11:56:55;23.30;;;11.95;;
63801;SDS011;49949;43.060;25.624;2022-12-08T11:59:27;24.80;;;11.25;;
63801;SDS011;49949;43.060;25.624;2022-12-08T12:01:59;20.80;;;11.05;;
63801;SDS011;49949;43.060;25.624;2022-12-08T12:04:59;22.05;;;12.07;;
63801;SDS011;49949;43.060;25.624;2022-12-08T12:10:09;21.20;;;11.55;;
63801;SDS011;49949;43.060;25.624;2022-12-08T12:15:30;39.47;;;16.65;;
63801;SDS011;49949;43.060;25.624;2022-12-08T12:18:08;25.45;;;11.50;;
63801;SDS011;49949;43.060;25.624;2022-12-08T12:20:50;46.10;;;15.80;;
63801;SDS011;49949;43.060;25.624;2022-12-08T12:23:22;40.47;;;16.33;;
63801;SDS011;49949;43.060;25.624;2022-12-08T12:26:02;44.80;;;16.60;;
63801;SDS011;49949;43.060;25.624;2022-12-08T12:28:33;44.42;;;17.17;;
63801;SDS011;49949;43.060;25.624;2022-12-08T12:31:17;29.02;;;12.25;;
63801;SDS011;49949;43.060;25.624;2022-12-08T12:33:46;23.02;;;10.98;;
63801;SDS011;49949;43.060;25.624;2022-12-08T12:36:14;28.65;;;13.18;;
63801;SDS011;49949;43.060;25.624;2022-12-08T12:38:45;37.58;;;13.75;;
63801;SDS011;49949;43.060;25.624;2022-12-08T12:54:44;38.22;;;16.58;;
63801;SDS011;49949;43.060;25.624;2022-12-08T12:57:34;37.53;;;15.95;;
63801;SDS011;49949;43.060;25.624;2022-12-08T13:02:32;34.90;;;15.90;;
63801;SDS011;49949;43.060;25.624;2022-12-08T13:10:29;38.25;;;13.88;;
63801;SDS011;49949;43.060;25.624;2022-12-08T13:13:16;29.73;;;13.20;;
63801;SDS011;49949;43.060;25.624;2022-12-08T13:18:59;27.63;;;13.02;;
63801;SDS011;49949;43.060;25.624;2022-12-08T13:28:33;26.45;;;12.48;;
63801;SDS011;49949;43.060;25.624;2022-12-08T13:31:41;28.10;;;12.48;;
63801;SDS011;49949;43.060;25.624;2022-12-08T13:36:56;28.13;;;13.77;;
63801;SDS011;49949;43.060;25.624;2022-12-08T13:44:48;26.33;;;12.95;;
63801;SDS011;49949;43.060;25.624;2022-12-08T13:47:20;32.45;;;13.48;;
63801;SDS011;49949;43.060;25.624;2022-12-08T13:49:53;38.33;;;14.45;;
63801;SDS011;49949;43.060;25.624;2022-12-08T13:52:34;40.97;;;14.88;;
63801;SDS011;49949;43.060;25.624;2022-12-08T13:55:05;31.35;;;14.98;;
63801;SDS011;49949;43.060;25.624;2022-12-08T13:57:42;37.92;;;15.93;;
63801;SDS011;49949;43.060;25.624;2022-12-08T14:00:14;33.90;;;15.30;;
63801;SDS011;49949;43.060;25.624;2022-12-08T14:02:42;38.60;;;15.52;;
63801;SDS011;49949;43.060;25.624;2022-12-08T14:05:10;37.67;;;16.48;;
63801;SDS011;49949;43.060;25.624;2022-12-08T14:07:37;35.30;;;16.55;;
63801;SDS011;49949;43.060;25.624;2022-12-08T14:10:47;39.42;;;15.55;;
63801;SDS011;49949;43.060;25.624;2022-12-08T14:12:58;39.65;;;15.68;;
63801;SDS011;49949;43.060;25.624;2022-12-08T14:15:32;37.40;;;15.13;;
63801;SDS011;49949;43.060;25.624;2022-12-08T14:17:58;39.30;;;15.52;;
63801;SDS011;49949;43.060;25.624;2022-12-08T14:20:26;41.28;;;16.52;;
63801;SDS011;49949;43.060;25.624;2022-12-08T14:22:56;33.40;;;15.55;;
63801;SDS011;49949;43.060;25.624;2022-12-08T14:25:25;40.15;;;16.05;;
63801;SDS011;49949;43.060;25.624;2022-12-08T14:27:56;41.80;;;17.67;;
63801;SDS011;49949;43.060;25.624;2022-12-08T14:30:26;41.25;;;16.17;;
63801;SDS011;49949;43.060;25.624;2022-12-08T14:32:56;39.20;;;16.17;;
63801;SDS011;49949;43.060;25.624;2022-12-08T14:38:03;49.40;;;17.20;;
63801;SDS011;49949;43.060;25.624;2022-12-08T14:40:37;41.33;;;16.45;;
63801;SDS011;49949;43.060;25.624;2022-12-08T14:48:17;59.22;;;18.52;;
63801;SDS011;49949;43.060;25.624;2022-12-08T14:56:07;48.15;;;17.10;;
63801;SDS011;49949;43.060;25.624;2022-12-08T14:58:37;49.28;;;17.98;;
63801;SDS011;49949;43.060;25.624;2022-12-08T15:01:03;54.30;;;22.75;;
63801;SDS011;49949;43.060;25.624;2022-12-08T15:03:30;65.35;;;31.02;;
63801;SDS011;49949;43.060;25.624;2022-12-08T15:06:02;49.40;;;20.00;;
63801;SDS011;49949;43.060;25.624;2022-12-08T15:08:30;52.80;;;18.88;;
63801;SDS011;49949;43.060;25.624;2022-12-08T15:13:49;43.80;;;17.33;;
63801;SDS011;49949;43.060;25.624;2022-12-08T15:19:12;29.33;;;12.48;;
63801;SDS011;49949;43.060;25.624;2022-12-08T15:21:41;41.70;;;13.75;;
63801;SDS011;49949;43.060;25.624;2022-12-08T15:24:11;34.58;;;15.55;;
63801;SDS011;49949;43.060;25.624;2022-12-08T15:26:43;36.45;;;15.68;;
63801;SDS011;49949;43.060;25.624;2022-12-08T15:29:25;36.47;;;15.13;;
63801;SDS011;49949;43.060;25.624;2022-12-08T15:31:53;38.63;;;15.55;;
63801;SDS011;49949;43.060;25.624;2022-12-08T15:34:21;38.88;;;15.98;;
63801;SDS011;49949;43.060;25.624;2022-12-08T15:36:48;31.05;;;13.82;;
63801;SDS011;49949;43.060;25.624;2022-12-08T15:39:24;36.40;;;14.50;;
63801;SDS011;49949;43.060;25.624;2022-12-08T15:42:00;29.75;;;13.27;;
63801;SDS011;49949;43.060;25.624;2022-12-08T15:44:26;28.80;;;12.65;;
63801;SDS011;49949;43.060;25.624;2022-12-08T15:46:53;27.90;;;12.45;;
63801;SDS011;49949;43.060;25.624;2022-12-08T15:49:20;27.02;;;12.00;;
63801;SDS011;49949;43.060;25.624;2022-12-08T15:51:47;24.38;;;11.43;;
63801;SDS011;49949;43.060;25.624;2022-12-08T15:54:13;23.95;;;11.10;;
63801;SDS011;49949;43.060;25.624;2022-12-08T15:56:49;25.55;;;10.68;;
63801;SDS011;49949;43.060;25.624;2022-12-08T15:59:18;24.35;;;12.15;;
63801;SDS011;49949;43.060;25.624;2022-12-08T16:01:49;26.37;;;11.90;;
63801;SDS011;49949;43.060;25.624;2022-12-08T16:04:19;25.55;;;12.52;;
63801;SDS011;49949;43.060;25.624;2022-12-08T16:06:47;25.67;;;12.27;;
63801;SDS011;49949;43.060;25.624;2022-12-08T16:09:16;22.25;;;10.10;;
63801;SDS011;49949;43.060;25.624;2022-12-08T16:11:54;24.45;;;10.25;;
63801;SDS011;49949;43.060;25.624;2022-12-08T16:14:39;22.88;;;10.85;;
63801;SDS011;49949;43.060;25.624;2022-12-08T16:17:14;24.02;;;11.80;;
63801;SDS011;49949;43.060;25.624;2022-12-08T16:19:41;14.38;;;7.68;;
63801;SDS011;49949;43.060;25.624;2022-12-08T16:22:21;14.75;;;7.50;;
63801;SDS011;49949;43.060;25.624;2022-12-08T16:24:49;19.48;;;9.10;;
63801;SDS011;49949;43.060;25.624;2022-12-08T16:27:22;24.92;;;10.45;;
63801;SDS011;49949;43.060;25.624;2022-12-08T16:29:52;27.73;;;11.15;;
63801;SDS011;49949;43.060;25.624;2022-12-08T16:32:18;24.60;;;11.07;;